Time;durP1;ratioP1;P1;durP2;ratioP2;P2;SDS_P1;SDS_P2;PMS_P1;PMS_P2;Temp;Humidity;BMP_temperature;BMP_pressure;BME280_temperature;BME280_humidity;BME280_pressure;Samples;Min_cycle;Max_cycle;Signal;HPM_P1;HPM_P2
2021/10/22 00:01:13;;;;;;;7.18;1.77;;;;;;;8.48;66.44;99430.47;5036901;28;20044;-80
2021/10/22 00:03:40;;;;;;;5.88;1.55;;;;;;;8.48;66.88;99427.84;5037201;28;20053;-79
2021/10/22 00:06:07;;;;;;;6.65;1.73;;;;;;;8.46;66.75;99431.50;5054542;28;20060;-80
2021/10/22 00:08:36;;;;;;;7.30;1.92;;;;;;;8.43;66.72;99435.13;5036665;28;20045;-79
2021/10/22 00:11:02;;;;;;;8.82;1.75;;;;;;;8.44;66.84;99436.81;5036945;28;20056;-79
2021/10/22 00:13:29;;;;;;;9.23;1.55;;;;;;;8.44;66.64;99438.59;5036748;28;20052;-79
2021/10/22 00:16:01;;;;;;;10.60;1.42;;;;;;;8.41;66.71;99438.75;5036660;28;20571;-79
2021/10/22 00:18:28;;;;;;;10.90;1.77;;;;;;;8.43;66.83;99436.88;5036660;28;20104;-80
2021/10/22 00:20:57;;;;;;;8.23;1.80;;;;;;;8.41;66.62;99431.72;5036734;28;20041;-79
2021/10/22 00:23:24;;;;;;;6.65;1.60;;;;;;;8.42;66.88;99432.59;5036841;28;20403;-79
2021/10/22 00:25:51;;;;;;;5.85;1.70;;;;;;;8.41;66.74;99436.13;5036501;28;20111;-79
2021/10/22 00:28:28;;;;;;;4.63;1.50;;;;;;;8.38;66.55;99437.16;5035988;28;20486;-79
2021/10/22 00:30:56;;;;;;;7.55;1.30;;;;;;;8.42;67.01;99427.34;5036892;28;20055;-80
2021/10/22 00:33:23;;;;;;;7.20;1.60;;;;;;;8.41;66.97;99431.72;5036558;28;20051;-79
2021/10/22 00:35:58;;;;;;;5.88;1.58;;;;;;;8.40;66.89;99451.03;5053948;28;20133;-79
2021/10/22 00:38:24;;;;;;;6.60;1.45;;;;;;;8.46;67.56;99440.19;5036399;28;20059;-79
2021/10/22 00:41:11;;;;;;;7.80;1.40;;;;;;;8.50;67.39;99438.28;5039661;28;20431;-79
2021/10/22 00:43:38;;;;;;;7.00;1.60;;;;;;;8.53;67.20;99432.91;5036476;28;20049;-80
2021/10/22 00:46:04;;;;;;;8.32;2.10;;;;;;;8.57;67.25;99433.56;5036523;28;20055;-80
2021/10/22 00:48:31;;;;;;;9.07;2.17;;;;;;;8.59;67.43;99429.94;5036261;28;20059;-80
2021/10/22 00:51:00;;;;;;;5.90;1.33;;;;;;;8.63;67.36;99424.53;5036584;28;20099;-80
2021/10/22 00:53:28;;;;;;;8.52;1.73;;;;;;;8.66;67.23;99437.47;5036024;28;20057;-79
2021/10/22 00:55:55;;;;;;;13.77;1.80;;;;;;;8.69;66.76;99429.44;5036331;28;20063;-79
2021/10/22 00:58:22;;;;;;;13.25;2.28;;;;;;;8.70;66.85;99425.88;5036407;28;20402;-79
2021/10/22 01:00:50;;;;;;;9.38;2.05;;;;;;;8.69;66.81;99427.66;5036044;28;20067;-80
2021/10/22 01:03:17;;;;;;;6.72;1.60;;;;;;;8.71;66.64;99427.59;5036359;28;20071;-79
2021/10/22 01:05:45;;;;;;;8.73;1.55;;;;;;;8.71;66.71;99428.41;5036213;28;20060;-80
2021/10/22 01:08:13;;;;;;;6.28;1.70;;;;;;;8.72;66.58;99427.47;5035913;28;20049;-80
2021/10/22 01:10:39;;;;;;;10.05;1.77;;;;;;;8.74;66.86;99422.16;5035868;28;20124;-80
2021/10/22 01:13:07;;;;;;;8.27;1.80;;;;;;;8.75;66.96;99429.09;5035805;28;20048;-80
2021/10/22 01:15:37;;;;;;;6.88;1.38;;;;;;;8.75;66.68;99426.47;5036052;28;20052;-80
2021/10/22 01:18:03;;;;;;;12.68;1.85;;;;;;;8.77;66.94;99416.75;5035869;28;20052;-79
2021/10/22 01:20:30;;;;;;;6.80;1.40;;;;;;;8.79;66.91;99408.78;5035633;28;20061;-80
2021/10/22 01:23:00;;;;;;;7.05;1.48;;;;;;;8.80;66.98;99413.94;5035598;28;20056;-80
2021/10/22 01:25:28;;;;;;;4.05;1.40;;;;;;;8.84;67.17;99404.97;5035890;28;20075;-80
2021/10/22 01:28:04;;;;;;;5.50;1.20;;;;;;;8.85;66.78;99405.81;5035947;28;20057;-80
2021/10/22 01:30:31;;;;;;;8.20;1.48;;;;;;;8.92;66.87;99401.06;5035903;28;20049;-80
2021/10/22 01:33:06;;;;;;;9.20;1.83;;;;;;;8.92;66.57;99398.44;5035951;28;20056;-80
2021/10/22 01:35:34;;;;;;;6.65;1.85;;;;;;;8.95;66.72;99396.50;5035461;28;20145;-80
2021/10/22 01:38:14;;;;;;;10.27;1.70;;;;;;;8.94;66.36;99389.53;5035962;28;20055;-79
2021/10/22 01:40:41;;;;;;;9.32;1.80;;;;;;;9.00;66.75;99388.34;5042381;28;20084;-80
2021/10/22 01:43:26;;;;;;;10.57;2.05;;;;;;;8.97;66.03;99384.13;5042407;28;20483;-80
2021/10/22 01:45:53;;;;;;;13.60;1.67;;;;;;;9.01;66.21;99386.59;5042251;28;20053;-80
2021/10/22 01:48:20;;;;;;;7.50;1.70;;;;;;;8.97;66.14;99371.00;5042431;28;20472;-80
2021/10/22 01:50:47;;;;;;;9.65;1.98;;;;;;;8.96;65.96;99378.94;5042038;28;20053;-80
2021/10/22 01:53:19;;;;;;;11.20;1.63;;;;;;;8.92;66.00;99382.69;5041989;28;20045;-79
2021/10/22 01:55:46;;;;;;;7.07;2.00;;;;;;;8.90;65.85;99384.56;5042492;28;20063;-80
2021/10/22 01:58:13;;;;;;;12.52;1.90;;;;;;;8.87;66.11;99385.59;5042277;28;20474;-80
2021/10/22 02:00:40;;;;;;;10.15;1.40;;;;;;;8.84;66.13;99389.22;5041908;28;20484;-80
2021/10/22 02:03:07;;;;;;;8.13;1.95;;;;;;;8.81;66.21;99385.91;5041801;28;20059;-80
2021/10/22 02:05:48;;;;;;;5.97;1.73;;;;;;;8.74;65.89;99380.16;5041797;28;20051;-80
2021/10/22 02:08:15;;;;;;;8.77;1.75;;;;;;;8.73;66.01;99376.69;5041900;28;20053;-80
2021/10/22 02:10:45;;;;;;;9.32;1.73;;;;;;;8.71;66.31;99388.22;5059794;28;20072;-80
2021/10/22 02:13:12;;;;;;;8.10;1.88;;;;;;;8.68;66.35;99389.22;5041849;28;20139;-79
2021/10/22 02:15:38;;;;;;;8.32;1.92;;;;;;;8.66;66.25;99385.84;5042040;28;20487;-79
2021/10/22 02:18:08;;;;;;;7.28;1.85;;;;;;;8.62;66.34;99389.56;5042107;28;20474;-79
2021/10/22 02:20:38;;;;;;;10.10;1.52;;;;;;;8.61;66.39;99385.25;5041707;28;20041;-80
2021/10/22 02:23:25;;;;;;;5.72;2.05;;;;;;;8.56;66.22;99382.03;5041684;28;20055;-80
2021/10/22 02:25:52;;;;;;;9.45;1.48;;;;;;;8.56;66.29;99377.63;5041878;28;20067;-80
2021/10/22 02:28:19;;;;;;;9.32;1.48;;;;;;;8.54;66.71;99374.25;5058911;28;20055;-79
2021/10/22 02:30:47;;;;;;;10.15;2.15;;;;;;;8.50;66.46;99370.06;5059237;28;20049;-80
2021/10/22 02:33:14;;;;;;;10.30;1.40;;;;;;;8.50;66.71;99374.44;5041714;28;20049;-80
2021/10/22 02:35:40;;;;;;;8.95;2.03;;;;;;;8.48;66.67;99371.91;5041559;28;20053;-80
2021/10/22 02:38:08;;;;;;;7.38;2.13;;;;;;;8.47;67.07;99367.59;5041655;28;20048;-80
2021/10/22 02:40:35;;;;;;;6.32;1.52;;;;;;;8.49;66.94;99363.13;5041950;28;20053;-80
2021/10/22 02:43:01;;;;;;;7.63;1.35;;;;;;;8.50;67.17;99367.44;5041888;28;20061;-80
2021/10/22 02:45:28;;;;;;;8.98;1.70;;;;;;;8.52;67.13;99359.50;5059412;28;20505;-80
2021/10/22 02:47:55;;;;;;;8.65;2.00;;;;;;;8.53;67.13;99363.84;5041507;28;20745;-80
2021/10/22 02:50:23;;;;;;;8.00;2.13;;;;;;;8.53;66.65;99353.34;5039189;28;20049;-80
2021/10/22 02:52:50;;;;;;;10.32;2.03;;;;;;;8.54;66.98;99352.41;5038692;28;20402;-80
2021/10/22 02:55:17;;;;;;;7.30;1.73;;;;;;;8.52;66.56;99347.19;5038552;28;20550;-80
2021/10/22 02:57:44;;;;;;;9.98;1.70;;;;;;;8.51;66.64;99340.28;5038293;28;20049;-80
2021/10/22 03:00:12;;;;;;;9.75;1.83;;;;;;;8.49;66.49;99342.16;5038519;28;20537;-80
2021/10/22 03:02:45;;;;;;;11.75;2.35;;;;;;;8.48;66.58;99350.94;5038301;28;20389;-80
2021/10/22 03:05:13;;;;;;;10.07;1.80;;;;;;;8.45;66.68;99353.75;5038146;28;20065;-80
2021/10/22 03:07:40;;;;;;;9.45;2.63;;;;;;;8.43;66.63;99343.31;5038115;28;20057;-80
2021/10/22 03:10:08;;;;;;;8.82;2.17;;;;;;;8.39;66.88;99341.81;5038082;28;20053;-80
2021/10/22 03:12:35;;;;;;;9.73;2.15;;;;;;;8.37;66.87;99333.16;5038520;28;20422;-80
2021/10/22 03:15:07;;;;;;;8.05;1.60;;;;;;;8.33;66.64;99342.97;5038083;28;20053;-80
2021/10/22 03:17:36;;;;;;;9.00;1.85;;;;;;;8.33;66.89;99342.13;5037856;28;20061;-80
2021/10/22 03:20:03;;;;;;;11.50;2.17;;;;;;;8.32;67.01;99338.66;5037968;28;20056;-80
2021/10/22 03:22:31;;;;;;;8.52;1.60;;;;;;;8.32;67.04;99337.81;5037870;28;20060;-79
2021/10/22 03:25:07;;;;;;;10.27;1.80;;;;;;;8.26;66.61;99330.28;5037963;28;20051;-80
2021/10/22 03:27:34;;;;;;;5.72;1.25;;;;;;;8.30;66.76;99316.09;5037744;28;20049;-80
2021/10/22 03:30:02;;;;;;;10.75;1.70;;;;;;;8.28;66.73;99321.41;5038089;28;20053;-80
2021/10/22 03:32:38;;;;;;;8.27;1.95;;;;;;;8.25;66.73;99316.31;5038354;28;20056;-80
2021/10/22 03:35:05;;;;;;;11.43;1.70;;;;;;;8.27;66.70;99308.38;5037535;28;20053;-79
2021/10/22 03:37:33;;;;;;;5.82;1.42;;;;;;;8.25;66.62;99305.84;5037519;28;20053;-80
2021/10/22 03:40:04;;;;;;;11.60;1.60;;;;;;;8.25;66.84;99313.69;5037841;28;20480;-80
2021/10/22 03:42:30;;;;;;;10.05;1.70;;;;;;;8.26;67.08;99304.91;5037871;28;20403;-80
2021/10/22 03:44:58;;;;;;;7.85;1.70;;;;;;;8.26;66.82;99323.25;5037638;28;20442;-80
2021/10/22 03:47:24;;;;;;;6.65;1.60;;;;;;;8.25;67.05;99308.47;5037705;28;20052;-80
2021/10/22 03:49:51;;;;;;;9.90;2.20;;;;;;;8.25;66.98;99312.84;5037388;28;20053;-80
2021/10/22 03:52:23;;;;;;;8.93;1.63;;;;;;;8.25;66.72;99315.47;5037294;28;20045;-80
2021/10/22 03:54:51;;;;;;;9.73;1.42;;;;;;;8.28;67.22;99312.69;5037562;28;20053;-80
2021/10/22 03:57:18;;;;;;;6.60;1.80;;;;;;;8.29;67.09;99314.38;5037449;28;20049;-80
2021/10/22 03:59:46;;;;;;;5.32;1.60;;;;;;;8.30;66.93;99306.41;5037449;28;20063;-80
2021/10/22 04:02:22;;;;;;;7.50;1.70;;;;;;;8.28;66.43;99304.81;5037196;28;20067;-80
2021/10/22 04:04:49;;;;;;;7.63;1.98;;;;;;;8.31;66.58;99310.75;5037422;28;20059;-80
2021/10/22 04:07:16;;;;;;;6.97;1.63;;;;;;;8.31;66.54;99310.75;5037370;28;20406;-80
2021/10/22 04:09:57;;;;;;;7.57;2.38;;;;;;;8.28;66.22;99310.06;5037274;28;20400;-80
2021/10/22 04:12:23;;;;;;;9.27;1.83;;;;;;;8.30;66.35;99314.28;5037039;28;20092;-80
2021/10/22 04:14:50;;;;;;;10.13;1.95;;;;;;;8.31;66.44;99312.53;5037112;28;20053;-80
2021/10/22 04:17:31;;;;;;;6.30;1.90;;;;;;;8.26;66.20;99301.44;5036854;28;20056;-80
2021/10/22 04:19:58;;;;;;;7.28;1.80;;;;;;;8.31;66.39;99304.66;5037034;28;20415;-80
2021/10/22 04:22:50;;;;;;;5.22;1.70;;;;;;;8.26;66.17;99304.06;5036638;28;20045;-80
2021/10/22 04:25:17;;;;;;;8.60;1.93;;;;;;;8.31;66.47;99325.63;5037010;28;20053;-80
2021/10/22 04:27:44;;;;;;;9.13;2.65;;;;;;;8.30;66.24;99324.78;5036578;28;20286;-80
2021/10/22 04:30:24;;;;;;;5.93;1.60;;;;;;;8.27;66.08;99331.97;5036901;28;20150;-80
2021/10/22 04:32:51;;;;;;;7.10;1.75;;;;;;;8.30;66.48;99323.94;5036987;28;20053;-80
2021/10/22 04:35:18;;;;;;;9.45;1.88;;;;;;;8.32;66.56;99324.69;5036584;28;20055;-80
2021/10/22 04:40:31;;;;;;;10.18;2.00;;;;;;;8.34;66.31;99312.38;5054122;28;20083;-80
2021/10/22 04:43:16;;;;;;;11.05;1.88;;;;;;;8.35;66.08;99312.25;5039037;28;20051;-80
2021/10/22 04:45:46;;;;;;;7.82;2.33;;;;;;;8.37;66.38;99321.84;5036407;28;20053;-80
2021/10/22 04:48:26;;;;;;;6.75;1.75;;;;;;;8.36;65.45;99318.34;5036507;28;20075;-80
2021/10/22 04:50:53;;;;;;;9.40;2.03;;;;;;;8.41;66.22;99316.31;5036324;28;20106;-80
2021/10/22 04:53:30;;;;;;;6.53;2.25;;;;;;;8.42;66.12;99307.53;5036230;28;20045;-80
2021/10/22 04:56:09;;;;;;;7.55;1.77;;;;;;;8.46;66.15;99319.53;5053797;28;20055;-80
2021/10/22 04:58:38;;;;;;;9.77;1.80;;;;;;;8.49;66.05;99315.91;5036513;28;20407;-80
2021/10/22 05:01:06;;;;;;;6.70;2.00;;;;;;;8.51;66.39;99315.81;5036032;28;20056;-80
2021/10/22 05:03:43;;;;;;;7.05;1.92;;;;;;;8.51;65.55;99310.56;5053813;28;20057;-80
2021/10/22 05:06:11;;;;;;;9.20;1.83;;;;;;;8.57;66.15;99302.41;5053592;28;20147;-80
2021/10/22 05:08:38;;;;;;;10.70;2.90;;;;;;;8.59;66.32;99308.38;5036369;28;20550;-80
2021/10/22 05:11:18;;;;;;;10.32;2.00;;;;;;;8.59;65.29;99305.75;5036225;28;20053;-80
2021/10/22 05:13:45;;;;;;;13.45;2.22;;;;;;;8.65;65.86;99304.56;5035437;28;20602;-80
2021/10/22 05:16:11;;;;;;;12.90;2.30;;;;;;;8.67;65.88;99287.81;5036080;28;20044;-80
2021/10/22 05:18:38;;;;;;;12.00;2.10;;;;;;;8.69;65.58;99293.84;5036333;28;20553;-80
2021/10/22 05:21:05;;;;;;;10.30;2.08;;;;;;;8.71;65.82;99293.75;5036024;28;20049;-81
2021/10/22 05:23:47;;;;;;;11.63;2.90;;;;;;;8.70;64.69;99279.78;5036056;28;20136;-80
2021/10/22 05:26:13;;;;;;;9.52;2.40;;;;;;;8.77;65.66;99305.66;5035608;28;20049;-80
2021/10/22 05:28:40;;;;;;;9.90;2.00;;;;;;;8.78;65.58;99268.00;5035965;28;20053;-80
2021/10/22 05:31:11;;;;;;;7.28;1.80;;;;;;;8.78;64.86;99270.63;5035624;28;20055;-80
2021/10/22 05:33:38;;;;;;;9.48;2.20;;;;;;;8.82;65.34;99256.41;5035529;28;20133;-80
2021/10/22 05:36:04;;;;;;;6.07;1.95;;;;;;;8.82;65.29;99256.41;5035540;28;20056;-80
2021/10/22 05:38:34;;;;;;;14.05;2.53;;;;;;;8.80;64.91;99259.09;5035887;28;20075;-80
2021/10/22 05:41:01;;;;;;;6.65;2.00;;;;;;;8.82;65.04;99259.03;5035872;28;20061;-80
2021/10/22 05:43:28;;;;;;;7.57;2.10;;;;;;;8.82;65.15;99251.16;5035552;28;20059;-80
2021/10/22 05:45:57;;;;;;;8.77;2.55;;;;;;;8.81;64.79;99260.78;5035519;28;20059;-80
2021/10/22 05:48:24;;;;;;;8.45;2.35;;;;;;;8.82;65.13;99261.66;5035436;28;20144;-80
2021/10/22 05:50:50;;;;;;;10.75;2.10;;;;;;;8.81;64.93;99239.78;5035461;28;20045;-80
2021/10/22 05:53:33;;;;;;;8.05;2.60;;;;;;;8.78;64.20;99241.75;5035729;28;20480;-81
2021/10/22 05:56:04;;;;;;;9.25;1.90;;;;;;;8.78;64.58;99239.97;5035749;28;20056;-80
2021/10/22 05:58:31;;;;;;;10.70;2.22;;;;;;;8.80;64.80;99250.38;5035447;28;20057;-83
2021/10/22 06:00:59;;;;;;;9.13;2.00;;;;;;;8.79;65.08;99261.81;5035944;28;20154;-83
2021/10/22 06:03:36;;;;;;;8.40;1.95;;;;;;;8.76;64.26;99247.09;5035472;28;20491;-83
2021/10/22 06:06:03;;;;;;;7.82;2.20;;;;;;;8.79;65.04;99240.81;5035329;28;20053;-83
2021/10/22 06:08:29;;;;;;;7.40;1.65;;;;;;;8.79;64.78;99238.19;5035336;28;20059;-83
2021/10/22 06:10:56;;;;;;;7.78;2.15;;;;;;;8.79;65.26;99235.56;5035365;28;20095;-83
2021/10/22 06:13:38;;;;;;;7.95;1.90;;;;;;;8.76;64.55;99233.97;5035207;28;20056;-83
2021/10/22 06:16:06;;;;;;;8.70;2.55;;;;;;;8.80;64.92;99229.38;5035601;28;20056;-83
2021/10/22 06:18:34;;;;;;;10.52;2.45;;;;;;;8.78;64.95;99244.38;5035533;28;20052;-84
2021/10/22 06:21:04;;;;;;;9.50;2.05;;;;;;;8.77;65.11;99245.28;5035356;28;20045;-83
2021/10/22 06:26:18;;;;;;;11.88;1.77;;;;;;;8.76;65.20;99241.84;5054887;28;20055;-83
2021/10/22 06:29:16;;;;;;;7.97;2.35;;;;;;;8.70;64.88;99243.03;5039432;28;20120;-83
2021/10/22 06:31:43;;;;;;;8.55;1.73;;;;;;;8.75;65.27;99236.69;5039047;28;20410;-83
2021/10/22 06:34:21;;;;;;;10.63;2.42;;;;;;;8.70;64.87;99245.66;5038998;28;20064;-84
2021/10/22 06:36:48;;;;;;;7.32;2.30;;;;;;;8.75;65.24;99234.06;5038552;28;20111;-83
2021/10/22 06:39:14;;;;;;;10.98;2.08;;;;;;;8.72;65.36;99238.53;5056219;28;20049;-81
2021/10/22 06:41:41;;;;;;;6.50;1.80;;;;;;;8.72;65.51;99245.59;5038469;28;20056;-85
2021/10/22 06:44:31;;;;;;;9.75;2.35;;;;;;;8.70;65.21;99260.56;5038354;28;20060;-86
2021/10/22 06:46:58;;;;;;;9.35;2.17;;;;;;;8.75;65.47;99255.06;5038857;28;20507;-83
2021/10/22 06:49:25;;;;;;;9.27;2.00;;;;;;;8.74;65.53;99264.69;5038654;28;20136;-82
2021/10/22 06:51:53;;;;;;;7.53;1.65;;;;;;;8.75;65.43;99260.31;5038428;28;20051;-83
2021/10/22 06:54:19;;;;;;;10.75;2.60;;;;;;;8.77;65.56;99261.91;5038064;28;20063;-81
2021/10/22 06:56:46;;;;;;;5.70;1.90;;;;;;;8.79;65.86;99264.44;5038407;28;20048;-83
2021/10/22 06:59:13;;;;;;;9.98;2.15;;;;;;;8.80;65.71;99264.34;5038252;28;20063;-81
2021/10/22 07:01:40;;;;;;;8.48;1.77;;;;;;;8.82;66.26;99274.78;5038217;28;20049;-86
2021/10/22 07:04:09;;;;;;;7.75;2.05;;;;;;;8.85;66.26;99266.69;5038381;28;20059;-83
2021/10/22 07:09:24;;;;;;;7.43;1.88;;;;;;;8.93;66.23;99253.97;5056163;28;20399;-83
2021/10/22 07:11:50;;;;;;;8.40;1.88;;;;;;;8.97;65.91;99263.38;5038311;28;20048;-83
2021/10/22 07:14:18;;;;;;;6.47;1.85;;;;;;;9.00;65.96;99257.09;5038081;28;20727;-81
2021/10/22 07:16:45;;;;;;;5.07;1.92;;;;;;;9.03;66.22;99264.78;5038078;28;20566;-83
2021/10/22 07:19:12;;;;;;;8.30;2.05;;;;;;;9.08;66.27;99256.66;5038049;28;20056;-83
2021/10/22 07:21:47;;;;;;;6.78;1.65;;;;;;;9.11;66.11;99267.81;5038126;28;20047;-83
2021/10/22 07:24:32;;;;;;;7.35;1.67;;;;;;;9.16;66.07;99253.56;5039515;28;20039;-83
2021/10/22 07:27:00;;;;;;;8.32;2.00;;;;;;;9.18;66.39;99259.56;5037975;28;20057;-83
2021/10/22 07:29:29;;;;;;;9.05;1.95;;;;;;;9.21;66.11;99272.53;5037802;28;20140;-83
2021/10/22 07:31:56;;;;;;;6.10;2.03;;;;;;;9.26;66.30;99246.81;5037575;28;20052;-83
2021/10/22 07:34:24;;;;;;;9.45;1.80;;;;;;;9.31;66.24;99275.44;5037365;28;20156;-83
2021/10/22 07:36:56;;;;;;;3.60;1.45;;;;;;;9.33;65.92;99255.19;5037409;28;20407;-83
2021/10/22 07:39:23;;;;;;;9.32;1.77;;;;;;;9.37;66.19;99247.03;5037879;28;20053;-83
2021/10/22 07:42:06;;;;;;;7.35;1.75;;;;;;;9.43;66.20;99263.34;5040071;28;20049;-83
2021/10/22 07:45:03;;;;;;;8.80;1.85;;;;;;;9.45;65.64;99258.84;5039970;28;20065;-83
2021/10/22 07:47:34;;;;;;;10.40;1.83;;;;;;;9.50;65.83;99251.56;5037396;28;20059;-83
2021/10/22 07:50:03;;;;;;;4.57;1.40;;;;;;;9.55;65.97;99269.66;5037414;28;20145;-82
2021/10/22 07:52:35;;;;;;;10.63;2.40;;;;;;;9.57;65.42;99262.53;5037224;28;20052;-83
2021/10/22 07:55:04;;;;;;;5.90;1.70;;;;;;;9.61;65.87;99261.41;5037503;28;20114;-83
2021/10/22 07:57:32;;;;;;;6.85;1.90;;;;;;;9.64;65.89;99267.31;5037634;28;20144;-84
2021/10/22 08:00:00;;;;;;;9.68;1.92;;;;;;;9.68;65.71;99254.81;5037418;28;20143;-84
2021/10/22 08:02:27;;;;;;;10.93;2.30;;;;;;;9.73;65.84;99257.19;5037164;28;20045;-83
2021/10/22 08:04:54;;;;;;;5.07;1.67;;;;;;;9.78;65.78;99262.97;5037335;28;20072;-83
2021/10/22 08:07:33;;;;;;;8.70;2.58;;;;;;;9.80;65.59;99255.88;5037266;28;20063;-83
2021/10/22 08:10:00;;;;;;;9.55;1.90;;;;;;;9.87;65.92;99274.72;5037250;28;20045;-84
2021/10/22 08:12:28;;;;;;;9.48;2.33;;;;;;;9.90;65.72;99279.78;5036957;28;20057;-83
2021/10/22 08:14:56;;;;;;;9.48;1.95;;;;;;;9.94;65.64;99268.13;5037022;28;20120;-84
2021/10/22 08:17:23;;;;;;;9.85;1.95;;;;;;;9.99;65.59;99265.22;5036717;28;20049;-84
2021/10/22 08:19:53;;;;;;;10.10;1.83;;;;;;;10.04;65.78;99271.03;5036987;28;20388;-84
2021/10/22 08:22:26;;;;;;;8.88;1.80;;;;;;;10.12;65.68;99263.50;5036880;28;20150;-83
2021/10/22 08:25:14;;;;;;;8.88;2.08;;;;;;;10.17;65.11;99279.00;5036776;28;20056;-83
2021/10/22 08:27:46;;;;;;;9.20;1.67;;;;;;;10.27;65.44;99288.00;5036570;28;20067;-83
2021/10/22 08:30:17;;;;;;;5.78;1.70;;;;;;;10.34;65.50;99262.13;5036689;28;20059;-84
2021/10/22 08:32:49;;;;;;;9.52;3.00;;;;;;;10.43;65.64;99281.75;5036565;28;20053;-84
2021/10/22 08:35:18;;;;;;;8.60;2.50;;;;;;;10.50;65.23;99285.72;5036272;28;20140;-83
2021/10/22 08:37:53;;;;;;;11.43;1.75;;;;;;;10.53;64.11;99293.41;5036628;28;20053;-84
2021/10/22 08:40:21;;;;;;;8.13;1.60;;;;;;;10.63;65.33;99303.34;5036706;28;20402;-84
2021/10/22 09:22:00;;;;;;;5.35;1.85;;;;;;;11.44;64.36;99305.97;5103236;22;20066;-89
2021/10/22 09:24:32;;;;;;;13.93;2.55;;;;;;;11.47;63.67;99308.38;5072839;28;20125;-92
2021/10/22 09:26:59;;;;;;;8.57;2.70;;;;;;;11.54;64.04;99304.38;5072832;28;20055;-87
2021/10/22 09:29:28;;;;;;;7.50;2.13;;;;;;;11.57;63.86;99296.28;5091236;28;20056;-88
2021/10/22 09:31:57;;;;;;;8.40;2.30;;;;;;;11.58;63.61;99295.31;5073564;28;20052;-88
2021/10/22 09:34:37;;;;;;;9.65;2.10;;;;;;;11.58;62.45;99312.91;5073725;28;20047;-87
2021/10/22 09:37:09;;;;;;;12.52;2.60;;;;;;;11.62;63.35;99280.13;5073324;28;20101;-88
2021/10/22 09:39:38;;;;;;;10.38;2.40;;;;;;;11.64;63.40;99296.69;5091370;28;20060;-88
2021/10/22 09:42:18;;;;;;;5.82;1.92;;;;;;;11.64;61.96;99311.66;5091143;28;20112;-86
2021/10/22 09:44:46;;;;;;;13.32;2.85;;;;;;;11.68;62.83;99300.81;5073859;28;20048;-90
2021/10/22 09:47:20;;;;;;;10.23;2.13;;;;;;;11.73;63.43;99279.38;5091740;28;20083;-89
2021/10/22 09:49:51;;;;;;;9.98;2.58;;;;;;;11.76;63.34;99280.94;5073140;28;20052;-89
2021/10/22 09:52:28;;;;;;;14.38;2.10;;;;;;;11.80;63.50;99280.66;5072946;28;20414;-87
2021/10/22 09:55:15;;;;;;;9.35;2.05;;;;;;;11.85;62.62;99267.16;5071276;28;20059;-85
2021/10/22 09:57:44;;;;;;;9.68;2.28;;;;;;;11.96;63.48;99271.66;5089847;28;20044;-88
2021/10/22 10:00:21;;;;;;;10.13;2.20;;;;;;;12.01;61.41;99240.53;5073395;28;20491;-89
2021/10/22 10:02:48;;;;;;;7.82;1.80;;;;;;;12.12;62.96;99274.91;5075267;28;20052;-88
2021/10/22 10:05:18;;;;;;;12.95;2.22;;;;;;;12.21;62.95;99285.75;5075332;28;20051;-87
2021/10/22 10:07:47;;;;;;;10.83;2.30;;;;;;;12.29;62.85;99279.94;5076291;28;20160;-87
2021/10/22 10:10:14;;;;;;;13.68;2.20;;;;;;;12.35;62.61;99279.50;5076872;28;20286;-87
2021/10/22 10:12:43;;;;;;;9.95;2.20;;;;;;;12.38;62.01;99287.19;5076797;28;20044;-89
2021/10/22 10:15:13;;;;;;;10.43;2.47;;;;;;;12.48;62.68;99287.34;5095112;28;20052;-86
2021/10/22 10:17:49;;;;;;;10.30;2.30;;;;;;;12.50;61.36;99301.31;5077141;28;20048;-87
2021/10/22 10:20:21;;;;;;;6.15;1.92;;;;;;;12.52;60.83;99299.38;5095094;28;20059;-85
2021/10/22 10:22:48;;;;;;;9.52;1.80;;;;;;;12.55;61.52;99307.09;5076364;28;20052;-87
2021/10/22 10:25:23;;;;;;;8.65;2.45;;;;;;;12.55;61.13;99328.19;5076987;28;20047;-89
2021/10/22 10:27:56;;;;;;;13.18;2.17;;;;;;;12.54;61.18;99315.97;5094940;28;20055;-89
2021/10/22 10:30:43;;;;;;;5.43;2.00;;;;;;;12.56;61.03;99321.13;5061573;28;20422;-89
2021/10/22 10:33:30;;;;;;;9.23;1.88;;;;;;;12.58;60.89;99298.94;5076574;28;20059;-87
2021/10/22 10:35:59;;;;;;;8.30;1.92;;;;;;;12.67;61.68;99305.34;5094512;28;20130;-88
2021/10/22 10:38:44;;;;;;;11.50;2.05;;;;;;;12.66;59.56;99308.09;5076771;28;20421;-88
2021/10/22 10:41:19;;;;;;;7.95;1.90;;;;;;;12.66;59.74;99311.59;5076533;28;20052;-88
2021/10/22 10:43:46;;;;;;;14.90;2.75;;;;;;;12.68;60.71;99303.56;5094602;28;20048;-89
2021/10/22 10:46:32;;;;;;;11.13;2.53;;;;;;;12.61;60.38;99311.06;5076787;28;20056;-87
2021/10/22 10:49:08;;;;;;;10.07;1.65;;;;;;;12.62;61.06;99310.13;5076166;28;20576;-87
2021/10/22 10:51:37;;;;;;;7.65;2.17;;;;;;;12.60;60.89;99314.69;5076535;28;20083;-88
2021/10/22 10:54:04;;;;;;;8.38;2.05;;;;;;;12.56;61.05;99321.97;5094282;28;20097;-88
2021/10/22 10:56:38;;;;;;;9.02;1.73;;;;;;;12.53;60.86;99339.84;5076693;28;20069;-88
2021/10/22 10:59:04;;;;;;;6.78;2.00;;;;;;;12.52;61.40;99312.56;5076316;28;20060;-89
2021/10/22 11:01:35;;;;;;;5.25;1.88;;;;;;;12.48;61.31;99306.69;5094077;28;20493;-87
2021/10/22 11:04:05;;;;;;;4.35;1.30;;;;;;;12.48;61.35;99333.09;5076239;28;20123;-86
2021/10/22 11:06:52;;;;;;;6.40;1.73;;;;;;;12.43;61.22;99329.09;5076322;28;20127;-86
2021/10/22 11:09:32;;;;;;;9.05;2.03;;;;;;;12.35;61.91;99319.94;5075900;28;20572;-88
2021/10/22 11:12:02;;;;;;;7.85;2.28;;;;;;;12.33;61.48;99318.34;5074970;28;20417;-87
2021/10/22 11:14:45;;;;;;;7.30;1.90;;;;;;;12.23;62.02;99310.25;5076130;28;20056;-87
2021/10/22 11:17:15;;;;;;;7.57;2.58;;;;;;;12.23;62.02;99328.72;5076062;28;20056;-88
2021/10/22 11:19:44;;;;;;;6.72;1.98;;;;;;;12.19;62.61;99319.34;5093827;28;20455;-88
2021/10/22 11:22:20;;;;;;;7.32;1.73;;;;;;;12.15;62.75;99320.50;5075228;28;20051;-87
2021/10/22 11:24:47;;;;;;;8.57;1.88;;;;;;;12.15;62.77;99326.59;5076017;28;20056;-88
2021/10/22 11:27:17;;;;;;;10.85;2.17;;;;;;;12.15;62.96;99328.41;5075899;28;20075;-86
2021/10/22 11:29:48;;;;;;;7.28;1.70;;;;;;;12.15;63.04;99328.41;5075530;28;20048;-88
2021/10/22 11:32:17;;;;;;;8.75;1.85;;;;;;;12.17;62.96;99337.91;5075396;28;20048;-88
2021/10/22 11:35:02;;;;;;;9.27;2.47;;;;;;;12.14;62.97;99318.81;5075572;28;20047;-87
2021/10/22 11:37:33;;;;;;;8.43;2.05;;;;;;;12.17;63.19;99326.50;5075655;28;20047;-86
2021/10/22 11:40:03;;;;;;;8.55;1.95;;;;;;;12.15;63.24;99334.53;5075623;28;20129;-87
2021/10/22 11:42:32;;;;;;;10.07;2.05;;;;;;;12.11;63.33;99333.91;5075199;28;20138;-87
2021/10/22 11:45:15;;;;;;;10.52;2.33;;;;;;;12.04;63.94;99340.53;5075379;28;20048;-87
2021/10/22 11:47:53;;;;;;;9.88;2.15;;;;;;;12.00;64.01;99344.31;5075758;28;20047;-88
2021/10/22 11:50:28;;;;;;;9.93;2.00;;;;;;;11.94;64.28;99368.50;5075129;28;20047;-87
2021/10/22 11:53:10;;;;;;;9.95;1.77;;;;;;;11.85;64.84;99380.53;5075148;28;20048;-88
2021/10/22 11:55:50;;;;;;;10.07;2.35;;;;;;;11.78;65.31;99372.19;5075640;28;20108;-88
2021/10/22 11:58:21;;;;;;;12.75;2.50;;;;;;;11.75;64.89;99367.13;5075462;28;20567;-85
2021/10/22 12:00:57;;;;;;;6.78;1.83;;;;;;;11.67;65.55;99367.63;5075946;28;20052;-88
2021/10/22 12:03:55;;;;;;;13.57;2.58;;;;;;;11.56;66.31;99388.63;5093135;28;20475;-89
2021/10/22 12:06:26;;;;;;;5.97;1.80;;;;;;;11.53;66.14;99386.19;5075286;28;20059;-88
2021/10/22 12:08:57;;;;;;;9.57;1.67;;;;;;;11.45;67.03;99395.44;5075558;28;20052;-88
2021/10/22 12:11:25;;;;;;;8.57;1.73;;;;;;;11.42;65.99;99384.28;5093141;28;20058;-86
2021/10/22 12:13:52;;;;;;;7.18;1.58;;;;;;;11.37;66.02;99402.19;5093135;28;20417;-88
2021/10/22 12:16:25;;;;;;;4.63;1.38;;;;;;;11.33;66.80;99402.38;5093211;28;20058;-90
2021/10/22 12:18:54;;;;;;;9.65;2.55;;;;;;;11.29;66.85;99431.69;5075697;28;20084;-88
2021/10/22 12:21:26;;;;;;;7.97;1.80;;;;;;;11.27;67.70;99425.66;5075803;28;20052;-89
2021/10/22 12:23:58;;;;;;;6.57;1.98;;;;;;;11.24;68.05;99439.88;5074835;28;20043;-88
2021/10/22 12:26:27;;;;;;;6.28;2.05;;;;;;;11.24;67.74;99447.78;5075490;28;20048;-86
2021/10/22 12:29:11;;;;;;;10.05;2.00;;;;;;;11.20;68.69;99456.81;5074973;28;20059;-88
2021/10/22 12:31:52;;;;;;;6.90;1.67;;;;;;;11.18;68.57;99435.03;5074554;28;20056;-89
2021/10/22 12:34:31;;;;;;;7.63;1.92;;;;;;;11.19;68.97;99436.69;5093024;28;20436;-88
2021/10/22 12:37:13;;;;;;;4.70;1.50;;;;;;;11.18;68.77;99443.75;5075220;28;20055;-90
2021/10/22 12:39:42;;;;;;;3.70;1.60;;;;;;;11.20;67.89;99438.38;5075146;28;20108;-87
2021/10/22 12:42:29;;;;;;;4.38;1.13;;;;;;;11.15;68.30;99436.06;5074773;28;20109;-89